createdAt,value
2023-06-29T00:02:00.731Z,100.00
2023-06-29T00:04:27.662Z,100.00
2023-06-29T00:06:55.893Z,100.00
2023-06-29T00:09:23.674Z,100.00
2023-06-29T00:11:50.761Z,100.00
2023-06-29T00:14:17.985Z,100.00
2023-06-29T00:16:45.531Z,100.00
2023-06-29T00:19:16.101Z,100.00
2023-06-29T00:21:43.229Z,100.00
2023-06-29T00:24:12.697Z,100.00
2023-06-29T00:26:39.963Z,100.00
2023-06-29T00:29:06.912Z,100.00
2023-06-29T00:31:34.298Z,100.00
2023-06-29T00:34:01.232Z,100.00
2023-06-29T00:36:28.027Z,100.00
2023-06-29T00:38:55.032Z,100.00
2023-06-29T00:41:22.142Z,100.00
2023-06-29T00:43:49.252Z,100.00
2023-06-29T00:46:19.220Z,100.00
2023-06-29T00:48:46.411Z,100.00
2023-06-29T00:51:14.464Z,100.00
2023-06-29T00:53:41.973Z,100.00
2023-06-29T00:56:08.973Z,100.00
2023-06-29T00:58:36.565Z,100.00
2023-06-29T01:01:03.388Z,100.00
2023-06-29T01:03:32.260Z,100.00
2023-06-29T01:06:02.654Z,100.00
2023-06-29T01:08:32.786Z,100.00
2023-06-29T01:11:00.431Z,100.00
2023-06-29T01:13:28.727Z,100.00
2023-06-29T01:15:55.989Z,100.00
2023-06-29T01:18:25.656Z,100.00
2023-06-29T01:20:53.393Z,100.00
2023-06-29T01:23:38.243Z,100.00
2023-06-29T01:26:06.704Z,100.00
2023-06-29T01:28:33.915Z,100.00
2023-06-29T01:31:03.521Z,100.00
2023-06-29T01:33:31.435Z,100.00
2023-06-29T01:36:10.843Z,100.00
2023-06-29T01:38:57.852Z,100.00
2023-06-29T01:41:25.709Z,100.00
2023-06-29T01:43:52.932Z,100.00
2023-06-29T01:46:21.392Z,100.00
2023-06-29T01:48:51.345Z,100.00
2023-06-29T01:51:18.501Z,100.00
2023-06-29T01:53:45.385Z,100.00
2023-06-29T01:56:12.415Z,100.00
2023-06-29T01:58:39.119Z,100.00
2023-06-29T02:01:06.070Z,100.00
2023-06-29T02:03:32.880Z,100.00
2023-06-29T02:05:59.835Z,100.00
2023-06-29T02:08:26.647Z,100.00
2023-06-29T02:10:53.661Z,100.00
2023-06-29T02:13:20.692Z,100.00
2023-06-29T02:15:47.722Z,100.00
2023-06-29T02:18:14.708Z,100.00
2023-06-29T02:20:41.842Z,100.00
2023-06-29T02:23:08.518Z,100.00
2023-06-29T02:25:35.083Z,100.00
2023-06-29T02:28:01.673Z,100.00
2023-06-29T02:30:28.693Z,100.00
2023-06-29T02:32:55.577Z,100.00
2023-06-29T02:35:22.237Z,100.00
2023-06-29T02:37:49.238Z,100.00
2023-06-29T02:40:16.651Z,100.00
2023-06-29T02:42:43.346Z,100.00
2023-06-29T02:45:10.641Z,100.00
2023-06-29T02:47:37.483Z,100.00
2023-06-29T02:50:04.477Z,100.00
2023-06-29T02:52:31.129Z,100.00
2023-06-29T02:54:57.807Z,100.00
2023-06-29T02:57:24.913Z,100.00
2023-06-29T02:59:51.658Z,100.00
2023-06-29T03:02:18.379Z,100.00
2023-06-29T03:04:45.213Z,100.00
2023-06-29T03:07:12.425Z,100.00
2023-06-29T03:09:39.147Z,100.00
2023-06-29T03:12:06.100Z,100.00
2023-06-29T03:14:32.808Z,100.00
2023-06-29T03:17:00.004Z,100.00
2023-06-29T03:19:28.899Z,100.00
2023-06-29T03:21:56.224Z,100.00
2023-06-29T03:24:22.859Z,100.00
2023-06-29T03:26:49.746Z,100.00
2023-06-29T03:29:16.497Z,100.00
2023-06-29T03:31:43.086Z,100.00
2023-06-29T03:34:09.758Z,100.00
2023-06-29T03:36:36.371Z,100.00
2023-06-29T03:39:03.369Z,100.00
2023-06-29T03:41:30.407Z,100.00
2023-06-29T03:43:57.126Z,100.00
2023-06-29T03:46:25.676Z,100.00
2023-06-29T03:48:52.365Z,100.00
2023-06-29T03:51:18.948Z,100.00
2023-06-29T03:53:45.888Z,100.00
2023-06-29T03:56:12.726Z,100.00
2023-06-29T03:58:39.466Z,100.00
2023-06-29T04:01:07.047Z,100.00
2023-06-29T04:03:35.129Z,100.00
2023-06-29T04:06:02.217Z,100.00
2023-06-29T04:08:29.301Z,100.00
2023-06-29T04:10:56.575Z,100.00
2023-06-29T04:13:23.343Z,100.00
2023-06-29T04:15:50.004Z,100.00
2023-06-29T04:18:17.672Z,100.00
2023-06-29T04:20:44.657Z,100.00
2023-06-29T04:23:15.708Z,100.00
2023-06-29T04:25:45.948Z,100.00
2023-06-29T04:28:14.130Z,100.00
2023-06-29T04:30:42.130Z,99.03
2023-06-29T04:33:12.201Z,96.82
2023-06-29T04:35:46.075Z,98.50
2023-06-29T04:38:14.593Z,95.10
2023-06-29T04:40:41.819Z,95.17
2023-06-29T04:43:11.405Z,92.85
2023-06-29T04:45:38.066Z,92.33
2023-06-29T04:48:05.266Z,92.40
2023-06-29T04:50:36.888Z,92.45
2023-06-29T04:53:10.711Z,91.43
2023-06-29T04:55:40.990Z,92.63
2023-06-29T04:58:07.833Z,94.37
2023-06-29T05:00:34.815Z,96.80
2023-06-29T05:03:01.982Z,97.32
2023-06-29T05:05:29.257Z,98.32
2023-06-29T05:07:55.812Z,99.33
2023-06-29T05:10:22.742Z,99.91
2023-06-29T05:12:49.370Z,97.81
2023-06-29T05:15:16.884Z,94.71
2023-06-29T05:17:44.546Z,94.58
2023-06-29T05:20:11.724Z,92.55
2023-06-29T05:22:38.445Z,90.63
2023-06-29T05:25:05.355Z,91.30
2023-06-29T05:27:32.477Z,90.26
2023-06-29T05:29:59.475Z,90.26
2023-06-29T05:32:26.096Z,89.41
2023-06-29T05:34:52.747Z,87.37
2023-06-29T05:37:19.455Z,85.58
2023-06-29T05:39:46.310Z,84.32
2023-06-29T05:42:13.278Z,83.12
2023-06-29T05:44:39.980Z,81.05
2023-06-29T05:47:08.516Z,80.55
2023-06-29T05:49:36.858Z,81.92
2023-06-29T05:52:04.081Z,80.47
2023-06-29T05:54:31.037Z,79.72
2023-06-29T05:56:58.451Z,79.52
2023-06-29T05:59:25.230Z,77.81
2023-06-29T06:01:52.503Z,76.90
2023-06-29T06:04:19.122Z,77.26
2023-06-29T06:06:48.013Z,76.38
2023-06-29T06:09:14.813Z,75.97
2023-06-29T06:11:41.812Z,75.11
2023-06-29T06:14:08.534Z,74.00
2023-06-29T06:16:38.378Z,72.75
2023-06-29T06:19:05.038Z,73.49
2023-06-29T06:21:31.778Z,74.08
2023-06-29T06:23:58.429Z,75.33
2023-06-29T06:26:25.864Z,75.79
2023-06-29T06:28:53.085Z,75.57
2023-06-29T06:31:32.846Z,72.81
2023-06-29T06:34:00.546Z,72.77
2023-06-29T06:36:28.284Z,71.23
2023-06-29T06:38:54.957Z,66.53
2023-06-29T06:41:21.678Z,64.68
2023-06-29T06:43:48.252Z,64.59
2023-06-29T06:46:15.302Z,64.63
2023-06-29T06:48:42.250Z,64.38
2023-06-29T06:51:08.887Z,62.41
2023-06-29T06:53:35.501Z,60.37
2023-06-29T06:56:02.235Z,60.22
2023-06-29T06:58:28.793Z,59.59
2023-06-29T07:00:55.492Z,59.50
2023-06-29T07:03:22.244Z,59.29
2023-06-29T07:05:49.407Z,60.03
2023-06-29T07:08:19.500Z,59.31
2023-06-29T07:10:46.426Z,60.17
2023-06-29T07:13:13.610Z,58.59
2023-06-29T07:15:40.460Z,59.46
2023-06-29T07:18:07.274Z,58.82
2023-06-29T07:25:33.541Z,56.78
2023-06-29T07:28:00.935Z,55.93
2023-06-29T07:30:27.762Z,56.36
2023-06-29T07:32:54.561Z,54.86
2023-06-29T07:35:21.274Z,55.86
2023-06-29T07:37:48.157Z,56.22
2023-06-29T07:40:15.661Z,54.29
2023-06-29T07:42:42.508Z,53.42
2023-06-29T07:45:09.433Z,53.54
2023-06-29T07:47:36.634Z,53.76
2023-06-29T07:50:03.552Z,52.80
2023-06-29T07:52:32.286Z,53.82
2023-06-29T07:54:59.448Z,52.87
2023-06-29T07:59:55.586Z,53.20
2023-06-29T08:02:22.338Z,52.01
2023-06-29T08:07:18.875Z,52.76
2023-06-29T08:09:45.741Z,51.60
2023-06-29T08:12:12.434Z,51.45
2023-06-29T08:14:39.129Z,51.98
2023-06-29T08:17:06.020Z,50.16
2023-06-29T08:19:32.826Z,52.09
2023-06-29T08:21:59.745Z,50.05
2023-06-29T08:24:26.331Z,52.57
2023-06-29T08:26:53.291Z,51.10
2023-06-29T08:29:21.687Z,50.82
2023-06-29T08:31:49.165Z,51.16
2023-06-29T08:34:15.907Z,50.29
2023-06-29T08:36:43.032Z,49.92
2023-06-29T08:39:10.236Z,49.12
2023-06-29T08:41:37.010Z,49.43
2023-06-29T08:44:05.929Z,49.50
2023-06-29T08:46:33.010Z,48.91
2023-06-29T08:49:01.640Z,49.63
2023-06-29T08:51:28.859Z,47.60
2023-06-29T08:53:55.819Z,46.24
2023-06-29T08:56:24.908Z,46.82
2023-06-29T08:58:52.530Z,46.63
2023-06-29T09:01:20.070Z,46.92
2023-06-29T09:03:47.566Z,46.40
2023-06-29T09:06:16.085Z,46.11
2023-06-29T09:08:43.003Z,45.53
2023-06-29T09:11:09.643Z,45.66
2023-06-29T09:13:36.349Z,44.87
2023-06-29T09:16:03.503Z,45.18
2023-06-29T09:18:31.205Z,45.91
2023-06-29T09:20:57.877Z,45.25
2023-06-29T09:23:27.108Z,44.42
2023-06-29T09:25:55.297Z,47.82
2023-06-29T09:28:22.132Z,44.09
2023-06-29T09:30:51.069Z,43.49
2023-06-29T09:33:18.250Z,44.36
2023-06-29T09:35:46.255Z,45.50
2023-06-29T09:38:14.310Z,45.05
2023-06-29T09:40:50.668Z,43.09
2023-06-29T09:43:18.336Z,43.74
2023-06-29T09:45:47.997Z,43.83
2023-06-29T09:50:52.867Z,44.89
2023-06-29T09:53:28.788Z,43.26
2023-06-29T09:55:56.947Z,42.31
2023-06-29T09:58:24.108Z,41.96
2023-06-29T10:00:51.877Z,40.51
2023-06-29T10:03:18.886Z,42.86
2023-06-29T10:05:45.621Z,42.72
2023-06-29T10:08:15.820Z,42.99
2023-06-29T10:10:43.501Z,42.48
2023-06-29T10:13:10.908Z,41.20
2023-06-29T10:15:38.364Z,40.95
2023-06-29T10:18:16.432Z,41.80
2023-06-29T10:20:45.318Z,40.99
2023-06-29T10:23:13.943Z,41.21
2023-06-29T10:25:42.922Z,41.12
2023-06-29T10:28:10.522Z,41.27
2023-06-29T10:30:48.108Z,41.66
2023-06-29T10:33:21.540Z,41.83
2023-06-29T10:35:59.383Z,42.00
2023-06-29T10:38:33.866Z,40.99
2023-06-29T10:41:00.783Z,41.65
2023-06-29T10:43:28.322Z,40.57
2023-06-29T10:45:55.037Z,39.67
2023-06-29T10:48:38.259Z,40.81
2023-06-29T10:51:10.009Z,40.38
2023-06-29T10:53:36.928Z,40.72
2023-06-29T10:56:03.967Z,39.56
2023-06-29T10:58:37.238Z,39.52
2023-06-29T11:01:03.988Z,39.22
2023-06-29T11:03:31.262Z,39.02
2023-06-29T11:05:59.671Z,38.44
2023-06-29T11:08:26.375Z,36.22
2023-06-29T11:10:53.764Z,36.91
2023-06-29T11:13:21.329Z,36.93
2023-06-29T11:15:55.830Z,38.90
2023-06-29T11:18:22.906Z,37.44
2023-06-29T11:20:50.030Z,38.38
2023-06-29T11:23:18.311Z,39.72
2023-06-29T11:25:54.077Z,41.44
2023-06-29T11:28:20.690Z,41.30
2023-06-29T11:30:50.792Z,40.84
2023-06-29T11:33:33.503Z,41.56
2023-06-29T11:36:02.356Z,42.80
2023-06-29T11:38:29.344Z,42.70
2023-06-29T11:41:06.485Z,41.51
2023-06-29T11:43:33.898Z,40.04
2023-06-29T11:46:01.582Z,41.71
2023-06-29T11:48:31.267Z,39.42
2023-06-29T11:51:01.556Z,38.77
2023-06-29T11:53:32.067Z,39.76
2023-06-29T11:55:58.911Z,41.48
2023-06-29T11:58:32.344Z,41.38
2023-06-29T12:00:59.295Z,40.97
2023-06-29T12:03:27.711Z,39.11
2023-06-29T12:05:54.903Z,38.72
2023-06-29T12:08:25.202Z,41.85
2023-06-29T12:10:52.156Z,40.12
2023-06-29T12:13:19.034Z,38.72
2023-06-29T12:18:17.060Z,39.81
2023-06-29T12:20:45.661Z,42.13
2023-06-29T12:23:13.597Z,42.18
2023-06-29T12:25:45.023Z,40.64
2023-06-29T12:28:12.339Z,40.75
2023-06-29T12:30:39.085Z,40.42
2023-06-29T12:33:05.795Z,43.02
2023-06-29T12:35:32.703Z,41.10
2023-06-29T12:37:59.553Z,38.41
2023-06-29T12:40:26.462Z,38.70
2023-06-29T12:42:53.393Z,37.81
2023-06-29T12:45:20.007Z,37.43
2023-06-29T12:47:47.525Z,39.13
2023-06-29T12:50:14.731Z,39.03
2023-06-29T12:52:41.914Z,40.16
2023-06-29T12:55:46.570Z,40.55
2023-06-29T12:58:13.455Z,38.58
2023-06-29T13:00:40.097Z,40.19
2023-06-29T13:03:12.873Z,38.97
2023-06-29T13:05:39.814Z,39.31
2023-06-29T13:08:06.943Z,39.67
2023-06-29T13:10:34.719Z,38.06
2023-06-29T13:13:01.999Z,39.54
2023-06-29T13:15:29.014Z,38.76
2023-06-29T13:17:56.266Z,38.53
2023-06-29T13:20:23.213Z,38.85
2023-06-29T13:22:49.913Z,38.27
2023-06-29T13:25:16.553Z,38.76
2023-06-29T13:27:46.852Z,37.28
2023-06-29T13:30:16.049Z,38.21
2023-06-29T13:32:43.043Z,37.73
2023-06-29T13:35:10.050Z,37.93
2023-06-29T13:37:36.853Z,38.62
2023-06-29T13:40:04.433Z,38.54
2023-06-29T13:42:31.050Z,38.56
2023-06-29T13:44:58.051Z,38.74
2023-06-29T13:47:24.947Z,37.81
2023-06-29T13:49:52.657Z,39.05
2023-06-29T13:52:19.449Z,41.47
2023-06-29T13:54:46.213Z,39.01
2023-06-29T13:57:13.197Z,37.36
2023-06-29T13:59:39.859Z,38.70
2023-06-29T14:02:07.335Z,38.90
2023-06-29T14:04:34.325Z,39.28
2023-06-29T14:07:01.416Z,40.03
2023-06-29T14:09:28.901Z,38.73
2023-06-29T14:11:55.765Z,37.48
2023-06-29T14:14:22.435Z,38.57
2023-06-29T14:16:49.050Z,38.60
2023-06-29T14:19:15.732Z,39.10
2023-06-29T14:21:44.925Z,39.38
2023-06-29T14:24:11.627Z,40.53
2023-06-29T14:26:38.163Z,38.89
2023-06-29T14:29:04.941Z,38.59
2023-06-29T14:31:31.815Z,39.08
2023-06-29T14:34:00.401Z,40.30
2023-06-29T14:36:27.450Z,38.98
2023-06-29T14:38:54.480Z,38.93
2023-06-29T14:41:21.415Z,37.01
2023-06-29T14:43:48.566Z,37.58
2023-06-29T14:46:15.339Z,36.83
2023-06-29T14:48:42.417Z,37.38
2023-06-29T14:51:09.694Z,36.83
2023-06-29T14:53:36.672Z,36.82
2023-06-29T14:56:11.069Z,37.12
2023-06-29T14:58:38.225Z,37.62
2023-06-29T15:01:05.213Z,37.48
2023-06-29T15:03:32.300Z,38.44
2023-06-29T15:05:59.718Z,38.74
2023-06-29T15:08:28.318Z,39.28
2023-06-29T15:10:55.107Z,39.58
2023-06-29T15:13:21.783Z,39.22
2023-06-29T15:15:49.036Z,38.53
2023-06-29T15:18:16.083Z,38.99
2023-06-29T15:20:42.877Z,36.69
2023-06-29T15:23:09.702Z,37.81
2023-06-29T15:25:39.156Z,38.60
2023-06-29T15:28:06.761Z,38.64
2023-06-29T15:30:41.122Z,38.21
2023-06-29T15:33:19.711Z,39.57
2023-06-29T15:35:46.850Z,39.18
2023-06-29T15:38:14.097Z,38.10
2023-06-29T15:40:41.883Z,39.56
2023-06-29T15:43:08.709Z,38.86
2023-06-29T15:45:35.864Z,39.66
2023-06-29T15:48:03.003Z,40.40
2023-06-29T15:50:30.306Z,40.58
2023-06-29T15:52:56.961Z,41.31
2023-06-29T15:55:23.721Z,41.14
2023-06-29T15:57:50.718Z,42.06
2023-06-29T16:00:17.920Z,42.07
2023-06-29T16:02:44.612Z,41.90
2023-06-29T16:05:11.455Z,42.89
2023-06-29T16:07:39.202Z,42.08
2023-06-29T16:10:06.084Z,42.28
2023-06-29T16:12:33.011Z,43.62
2023-06-29T16:15:00.774Z,43.21
2023-06-29T16:17:28.735Z,45.36
2023-06-29T16:19:55.996Z,46.51
2023-06-29T16:22:22.841Z,46.26
2023-06-29T16:24:49.575Z,45.96
2023-06-29T16:27:16.261Z,46.39
2023-06-29T16:29:43.469Z,46.77
2023-06-29T16:32:10.506Z,47.63
2023-06-29T16:34:37.364Z,49.09
2023-06-29T16:37:04.119Z,46.69
2023-06-29T16:39:30.990Z,46.68
2023-06-29T16:41:57.756Z,47.88
2023-06-29T16:44:24.390Z,48.75
2023-06-29T16:46:53.325Z,49.38
2023-06-29T16:49:20.207Z,49.67
2023-06-29T16:51:46.996Z,50.14
2023-06-29T16:54:13.555Z,51.50
2023-06-29T16:56:41.029Z,52.22
2023-06-29T16:59:07.591Z,55.09
2023-06-29T17:01:34.228Z,55.46
2023-06-29T17:04:00.892Z,56.85
2023-06-29T17:06:27.824Z,58.74
2023-06-29T17:08:54.614Z,59.22
2023-06-29T17:11:21.353Z,60.40
2023-06-29T17:13:48.923Z,62.40
2023-06-29T17:16:15.681Z,63.00
2023-06-29T17:18:42.452Z,64.24
2023-06-29T17:21:09.072Z,64.66
2023-06-29T17:23:36.041Z,64.72
2023-06-29T17:26:04.262Z,66.31
2023-06-29T17:28:30.889Z,66.25
2023-06-29T17:30:58.152Z,67.67
2023-06-29T17:33:25.056Z,67.44
2023-06-29T17:35:52.155Z,68.59
2023-06-29T17:38:19.371Z,68.74
2023-06-29T17:40:46.453Z,69.73
2023-06-29T17:43:13.117Z,71.01
2023-06-29T17:45:40.105Z,72.42
2023-06-29T17:48:09.956Z,73.33
2023-06-29T17:50:37.344Z,75.44
2023-06-29T17:53:04.244Z,77.09
2023-06-29T17:55:30.854Z,77.55
2023-06-29T17:57:58.039Z,78.08
2023-06-29T18:00:24.809Z,78.90
2023-06-29T18:02:51.573Z,80.43
2023-06-29T18:05:18.456Z,81.50
2023-06-29T18:07:45.410Z,81.43
2023-06-29T18:10:12.119Z,81.63
2023-06-29T18:12:39.262Z,83.35
2023-06-29T18:15:06.761Z,84.59
2023-06-29T18:17:34.033Z,85.37
2023-06-29T18:20:01.318Z,85.73
2023-06-29T18:22:28.261Z,85.87
2023-06-29T18:24:55.263Z,86.82
2023-06-29T18:27:23.436Z,88.03
2023-06-29T18:29:50.464Z,88.13
2023-06-29T18:32:18.343Z,88.92
2023-06-29T18:34:47.027Z,89.11
2023-06-29T18:37:13.899Z,89.02
2023-06-29T18:39:40.825Z,89.25
2023-06-29T18:42:07.937Z,91.56
2023-06-29T18:44:34.778Z,92.20
2023-06-29T18:47:06.157Z,92.43
2023-06-29T18:49:45.906Z,93.45
2023-06-29T18:52:18.205Z,93.94
2023-06-29T18:54:45.530Z,93.58
2023-06-29T18:57:12.446Z,95.46
2023-06-29T18:59:40.095Z,96.25
2023-06-29T19:02:09.744Z,96.25
2023-06-29T19:04:37.209Z,98.00
2023-06-29T19:07:04.082Z,97.81
2023-06-29T19:09:31.485Z,97.99
2023-06-29T19:11:58.456Z,97.72
2023-06-29T19:14:25.307Z,98.42
2023-06-29T19:16:52.251Z,98.30
2023-06-29T19:19:19.316Z,98.31
2023-06-29T19:21:49.183Z,98.47
2023-06-29T19:24:16.886Z,99.13
2023-06-29T19:26:43.932Z,99.92
2023-06-29T19:29:14.430Z,99.52
2023-06-29T19:31:42.932Z,100.00
2023-06-29T19:34:11.870Z,99.86
2023-06-29T19:36:39.167Z,100.00
2023-06-29T19:39:05.878Z,100.00
2023-06-29T19:41:32.636Z,100.00
2023-06-29T19:44:00.818Z,100.00
2023-06-29T19:46:27.697Z,100.00
2023-06-29T19:48:54.654Z,100.00
2023-06-29T19:51:21.716Z,100.00
2023-06-29T19:53:48.784Z,100.00
2023-06-29T19:56:15.997Z,100.00
2023-06-29T19:58:43.167Z,100.00
2023-06-29T20:01:10.121Z,100.00
2023-06-29T20:03:37.203Z,100.00
2023-06-29T20:06:04.578Z,100.00
2023-06-29T20:08:31.679Z,100.00
2023-06-29T20:10:58.943Z,100.00
2023-06-29T20:13:26.403Z,100.00
2023-06-29T20:15:53.713Z,100.00
2023-06-29T20:18:20.906Z,100.00
2023-06-29T20:20:47.754Z,100.00
2023-06-29T20:23:14.667Z,100.00
2023-06-29T20:25:41.343Z,100.00
2023-06-29T20:28:08.092Z,100.00
2023-06-29T20:30:34.960Z,100.00
2023-06-29T20:33:02.134Z,100.00
2023-06-29T20:35:29.496Z,100.00
2023-06-29T20:37:56.403Z,100.00
2023-06-29T20:40:24.527Z,100.00
2023-06-29T20:42:51.460Z,100.00
2023-06-29T20:45:18.295Z,100.00
2023-06-29T20:47:45.537Z,100.00
2023-06-29T20:50:12.620Z,100.00
2023-06-29T20:52:39.653Z,100.00
2023-06-29T20:55:06.770Z,100.00
2023-06-29T20:57:38.410Z,100.00
2023-06-29T21:00:11.362Z,100.00
2023-06-29T21:02:38.660Z,100.00
2023-06-29T21:05:06.044Z,100.00
2023-06-29T21:07:33.297Z,100.00
2023-06-29T21:10:00.133Z,100.00
2023-06-29T21:12:27.444Z,100.00
2023-06-29T21:14:54.598Z,100.00
2023-06-29T21:17:21.644Z,100.00
2023-06-29T21:19:49.063Z,100.00
2023-06-29T21:22:17.981Z,100.00
2023-06-29T21:24:45.310Z,100.00
2023-06-29T21:27:19.022Z,100.00
2023-06-29T21:29:47.416Z,100.00
2023-06-29T21:32:15.302Z,100.00
2023-06-29T21:34:42.524Z,100.00
2023-06-29T21:37:09.664Z,100.00
2023-06-29T21:39:36.278Z,100.00
2023-06-29T21:42:03.032Z,100.00
2023-06-29T21:44:29.718Z,100.00
2023-06-29T21:46:56.638Z,100.00
2023-06-29T21:49:23.583Z,100.00
2023-06-29T21:51:50.406Z,100.00
2023-06-29T21:54:17.407Z,100.00
2023-06-29T21:56:45.249Z,100.00
2023-06-29T21:59:11.922Z,100.00
2023-06-29T22:01:38.683Z,100.00
2023-06-29T22:04:05.521Z,100.00
2023-06-29T22:06:32.485Z,100.00
2023-06-29T22:08:59.143Z,100.00
2023-06-29T22:11:28.170Z,100.00
2023-06-29T22:13:55.214Z,100.00
2023-06-29T22:16:25.034Z,100.00
2023-06-29T22:18:52.329Z,100.00
2023-06-29T22:21:22.438Z,100.00
2023-06-29T22:23:53.680Z,100.00
2023-06-29T22:26:20.990Z,100.00
2023-06-29T22:28:47.900Z,100.00
2023-06-29T22:31:18.694Z,100.00
2023-06-29T22:33:46.425Z,100.00
2023-06-29T22:36:14.909Z,100.00
2023-06-29T22:38:42.241Z,100.00
2023-06-29T22:41:09.631Z,100.00
2023-06-29T22:43:36.770Z,100.00
2023-06-29T22:46:03.759Z,100.00
2023-06-29T22:48:30.882Z,100.00
2023-06-29T22:50:57.986Z,100.00
2023-06-29T22:53:25.152Z,100.00
2023-06-29T22:55:51.979Z,100.00
2023-06-29T22:58:25.670Z,100.00
2023-06-29T23:00:53.501Z,100.00
2023-06-29T23:03:20.820Z,100.00
2023-06-29T23:05:48.245Z,100.00
2023-06-29T23:08:16.655Z,100.00
2023-06-29T23:10:43.557Z,100.00
2023-06-29T23:13:15.606Z,100.00
2023-06-29T23:15:44.704Z,100.00
2023-06-29T23:18:13.250Z,100.00
2023-06-29T23:20:45.208Z,100.00
2023-06-29T23:23:14.400Z,100.00
2023-06-29T23:25:42.262Z,100.00
2023-06-29T23:28:09.111Z,100.00
2023-06-29T23:30:36.848Z,100.00
2023-06-29T23:33:03.928Z,100.00
2023-06-29T23:35:30.773Z,100.00
2023-06-29T23:37:57.637Z,100.00
2023-06-29T23:40:27.442Z,100.00
2023-06-29T23:42:54.926Z,100.00
2023-06-29T23:45:23.025Z,100.00
2023-06-29T23:47:50.638Z,100.00
2023-06-29T23:50:19.850Z,100.00
2023-06-29T23:52:46.971Z,100.00
2023-06-29T23:55:14.150Z,100.00
2023-06-29T23:57:42.177Z,100.00
